Capitan Oriel Lea Plaza Airport
SLTJ : rendu visible

Aérodrome :











RETROUVEZ-NOUS SUR...

 
LOGIN :

S'inscrire | Disclaimer

   EN    FR    IT 

 









Légende :    VFR   VFR Marginal   IFR   IFR Intensif   IFR Très Intensif
Visi : 
Plafond : 
>= 8 km
>= 3000ft
5 à 8 km
1000 à 3000 ft
1500m à 5 km
500 à 1000 ft
800 à 1500m
200 à 500 ft
< 800m
< 200 ft
Symboles :   Orages  Brouillard  Fortes neiges  Fortes précipitations  Vent > 20 kt






- Altitude de l'aérodrome : 6079 ft
- Code IATA : TJA


SLTJ - Capitan Oriel Lea Plaza

DERNIER METAR :
  • 270200Z 00000KT 9999 FEW030 BKN070 17/13 Q1025

METARs EXPIRÉS :
  • 270100Z 13004KT 9999 FEW030 OVC070 18/14 Q1024
  • 270000Z 00000KT 9999 SCT030 OVC070 18/14 Q1023

TAF TAF SLTJ
Valide du 27 à 00h jusqu'au 28 à 00h UTC


262200Z 2700/2724 00000KT 9999 BKN020 BKN070 TX27/2719Z TN13 /2711Z
BECMG 2714/2716 14010KT SCT030 FEW036CB SCT070



MET'MAP, la Météo Aéronautique d'un coup d'oeil ! - Copyright ORBIFLY Décembre 2007 - Disclaimer

ORBIFLY MET'MAP TEAM :

Programmation & Développement : Alexandra Zaïnal
Sur une idée originale de : Baudouin d'Aumeries
Assistance à la programmation : Marc-Olivier Méhu
Soutien technique & logistique : Manuel Goepfert

Contact : metmap@orbifly.com




SOURCES & CREDITS :

   NOAA       Earth
Advisory